KBTV/BTV METAR and TAF weather

Enter ICAO airport designator
Station Type Date Time Source
KBTV METAR 2021/01/17 18:21 UTC NOAA

KBTV 171821Z 27016G23KT 10SM FEW029 OVC039 02/M04 A2937 RMK AO2 T00221039


Station Type Date Time Source
KBTV Decoded METAR 2021/01/17 18:21 UTC NOAA

BURLINGTON INTERNATIONAL, VT, United States (KBTV) 44-28N 73-09W 105M
Jan 17, 2021 - 01:21 PM EST / 2021.01.17 1821 UTC
Wind: from the W (270 degrees) at 18 MPH (16 KT) gusting to 26 MPH (23 KT):0
Visibility: 10 mile(s):0
Sky conditions: overcast
Temperature: 36.0 F (2.2 C)
Dew Point: 25.0 F (-3.9 C)
Relative Humidity: 63%
Pressure (altimeter): 29.37 in. Hg (994 hPa)
ob: KBTV 171821Z 27016G23KT 10SM FEW029 OVC039 02/M04 A2937 RMK AO2 T00221039
cycle: 18

Station Type Date Time Source
KBTV TAF 2021/01/17 18:42 UTC NOAA

TAF KBTV 171741Z 1718/1818 27010G20KT P6SM VCSH OVC035
FM180000 27010KT P6SM OVC025
FM181200 30007KT P6SM OVC030

Example: see airport list